Terminal Aerodrome Forecast
Issued by NWS

Home | Current Version | Previous Version | Text Only | Print | Product List | Glossary On
Versions: 1 2 3 4 5 6 7 8 9 10 11 12 13 14 15 16 17 18 19 20 21 22
000
FTUS45 KREV 140500
TAFTVL
TAF
KTVL 140530Z 1406/1506 VRB03KT P6SM SCT180
     FM141700 03008KT P6SM FEW060 SCT140
     FM142200 19009KT P6SM SCT060 BKN140
     FM150400 VRB04KT P6SM SCT140=

USA.gov is the U.S. government's official web portal to all federal, state and local government web resources and services.